sensor_id;sensor_type;location;lat;lon;timestamp;P1;durP1;ratioP1;P2;durP2;ratioP2
17872;SDS011;36318;42.620;23.338;2022-10-23T00:00:02;23.30;;;16.00;;
17872;SDS011;36318;42.620;23.338;2022-10-23T00:02:29;25.80;;;14.47;;
17872;SDS011;36318;42.620;23.338;2022-10-23T00:04:55;23.50;;;14.63;;
17872;SDS011;36318;42.620;23.338;2022-10-23T00:07:22;15.70;;;12.53;;
17872;SDS011;36318;42.620;23.338;2022-10-23T00:09:48;17.17;;;12.83;;
17872;SDS011;36318;42.620;23.338;2022-10-23T00:12:15;19.03;;;12.63;;
17872;SDS011;36318;42.620;23.338;2022-10-23T00:14:43;21.43;;;12.83;;
17872;SDS011;36318;42.620;23.338;2022-10-23T00:17:09;18.43;;;12.77;;
17872;SDS011;36318;42.620;23.338;2022-10-23T00:19:36;28.73;;;11.77;;
17872;SDS011;36318;42.620;23.338;2022-10-23T00:22:03;16.70;;;11.30;;
17872;SDS011;36318;42.620;23.338;2022-10-23T00:24:30;12.77;;;10.37;;
17872;SDS011;36318;42.620;23.338;2022-10-23T00:26:56;15.90;;;10.20;;
17872;SDS011;36318;42.620;23.338;2022-10-23T00:29:23;16.23;;;9.27;;
17872;SDS011;36318;42.620;23.338;2022-10-23T00:31:51;18.90;;;10.73;;
17872;SDS011;36318;42.620;23.338;2022-10-23T00:34:17;16.50;;;8.93;;
17872;SDS011;36318;42.620;23.338;2022-10-23T00:36:44;15.40;;;10.17;;
17872;SDS011;36318;42.620;23.338;2022-10-23T00:39:10;13.53;;;10.10;;
17872;SDS011;36318;42.620;23.338;2022-10-23T00:41:37;17.47;;;9.90;;
17872;SDS011;36318;42.620;23.338;2022-10-23T00:44:06;18.00;;;9.50;;
17872;SDS011;36318;42.620;23.338;2022-10-23T00:46:33;14.30;;;8.73;;
17872;SDS011;36318;42.620;23.338;2022-10-23T00:49:00;10.73;;;8.10;;
17872;SDS011;36318;42.620;23.338;2022-10-23T00:51:28;21.07;;;8.60;;
17872;SDS011;36318;42.620;23.338;2022-10-23T00:53:57;16.70;;;8.37;;
17872;SDS011;36318;42.620;23.338;2022-10-23T00:56:24;14.70;;;8.60;;
17872;SDS011;36318;42.620;23.338;2022-10-23T00:58:51;20.47;;;8.70;;
17872;SDS011;36318;42.620;23.338;2022-10-23T01:01:19;13.77;;;9.67;;
17872;SDS011;36318;42.620;23.338;2022-10-23T01:03:46;14.53;;;9.60;;
17872;SDS011;36318;42.620;23.338;2022-10-23T01:06:16;17.13;;;8.47;;
17872;SDS011;36318;42.620;23.338;2022-10-23T01:08:48;16.97;;;8.30;;
17872;SDS011;36318;42.620;23.338;2022-10-23T01:11:17;12.87;;;7.80;;
17872;SDS011;36318;42.620;23.338;2022-10-23T01:13:47;9.20;;;6.47;;
17872;SDS011;36318;42.620;23.338;2022-10-23T01:16:17;16.87;;;7.73;;
17872;SDS011;36318;42.620;23.338;2022-10-23T01:18:46;13.10;;;7.20;;
17872;SDS011;36318;42.620;23.338;2022-10-23T01:21:17;15.23;;;7.07;;
17872;SDS011;36318;42.620;23.338;2022-10-23T01:23:52;12.40;;;6.90;;
17872;SDS011;36318;42.620;23.338;2022-10-23T01:26:26;22.23;;;9.87;;
17872;SDS011;36318;42.620;23.338;2022-10-23T01:28:58;16.27;;;9.57;;
17872;SDS011;36318;42.620;23.338;2022-10-23T01:31:27;22.63;;;13.50;;
17872;SDS011;36318;42.620;23.338;2022-10-23T01:33:57;19.47;;;13.90;;
17872;SDS011;36318;42.620;23.338;2022-10-23T01:36:25;19.67;;;13.73;;
17872;SDS011;36318;42.620;23.338;2022-10-23T01:38:54;20.67;;;13.67;;
17872;SDS011;36318;42.620;23.338;2022-10-23T01:41:23;21.23;;;14.33;;
17872;SDS011;36318;42.620;23.338;2022-10-23T01:43:53;19.10;;;13.67;;
17872;SDS011;36318;42.620;23.338;2022-10-23T01:46:23;23.57;;;15.20;;
17872;SDS011;36318;42.620;23.338;2022-10-23T01:48:50;24.83;;;15.17;;
17872;SDS011;36318;42.620;23.338;2022-10-23T01:51:18;18.83;;;15.53;;
17872;SDS011;36318;42.620;23.338;2022-10-23T01:53:46;23.10;;;14.87;;
17872;SDS011;36318;42.620;23.338;2022-10-23T01:56:14;23.37;;;16.00;;
17872;SDS011;36318;42.620;23.338;2022-10-23T01:58:44;24.67;;;14.97;;
17872;SDS011;36318;42.620;23.338;2022-10-23T02:01:11;20.27;;;13.70;;
17872;SDS011;36318;42.620;23.338;2022-10-23T02:03:40;18.13;;;14.57;;
17872;SDS011;36318;42.620;23.338;2022-10-23T02:06:07;20.80;;;13.53;;
17872;SDS011;36318;42.620;23.338;2022-10-23T02:08:34;23.87;;;13.90;;
17872;SDS011;36318;42.620;23.338;2022-10-23T02:11:02;16.60;;;13.30;;
17872;SDS011;36318;42.620;23.338;2022-10-23T02:13:32;14.73;;;12.03;;
17872;SDS011;36318;42.620;23.338;2022-10-23T02:16:01;16.40;;;12.90;;
17872;SDS011;36318;42.620;23.338;2022-10-23T02:18:31;16.40;;;12.70;;
17872;SDS011;36318;42.620;23.338;2022-10-23T02:21:02;21.23;;;14.20;;
17872;SDS011;36318;42.620;23.338;2022-10-23T02:23:31;18.60;;;13.90;;
17872;SDS011;36318;42.620;23.338;2022-10-23T02:25:59;21.53;;;13.40;;
17872;SDS011;36318;42.620;23.338;2022-10-23T02:28:30;18.60;;;13.33;;
17872;SDS011;36318;42.620;23.338;2022-10-23T02:30:58;19.73;;;14.13;;
17872;SDS011;36318;42.620;23.338;2022-10-23T02:33:25;22.87;;;13.00;;
17872;SDS011;36318;42.620;23.338;2022-10-23T02:35:52;17.70;;;12.53;;
17872;SDS011;36318;42.620;23.338;2022-10-23T02:38:28;16.20;;;11.93;;
17872;SDS011;36318;42.620;23.338;2022-10-23T02:40:54;20.50;;;13.10;;
17872;SDS011;36318;42.620;23.338;2022-10-23T02:43:23;23.07;;;11.83;;
17872;SDS011;36318;42.620;23.338;2022-10-23T02:45:53;14.60;;;10.20;;
17872;SDS011;36318;42.620;23.338;2022-10-23T02:48:22;18.80;;;11.50;;
17872;SDS011;36318;42.620;23.338;2022-10-23T02:50:50;15.27;;;10.50;;
17872;SDS011;36318;42.620;23.338;2022-10-23T02:53:20;16.60;;;8.97;;
17872;SDS011;36318;42.620;23.338;2022-10-23T02:55:56;16.60;;;9.70;;
17872;SDS011;36318;42.620;23.338;2022-10-23T02:58:26;13.13;;;9.10;;
17872;SDS011;36318;42.620;23.338;2022-10-23T03:00:54;13.40;;;9.00;;
17872;SDS011;36318;42.620;23.338;2022-10-23T03:03:23;13.53;;;8.10;;
17872;SDS011;36318;42.620;23.338;2022-10-23T03:05:52;13.03;;;8.47;;
17872;SDS011;36318;42.620;23.338;2022-10-23T03:08:19;12.43;;;8.17;;
17872;SDS011;36318;42.620;23.338;2022-10-23T03:10:45;18.33;;;8.63;;
17872;SDS011;36318;42.620;23.338;2022-10-23T03:13:13;12.73;;;7.43;;
17872;SDS011;36318;42.620;23.338;2022-10-23T03:15:40;15.43;;;8.70;;
17872;SDS011;36318;42.620;23.338;2022-10-23T03:18:06;17.53;;;9.03;;
17872;SDS011;36318;42.620;23.338;2022-10-23T03:20:33;14.03;;;8.30;;
17872;SDS011;36318;42.620;23.338;2022-10-23T03:23:00;12.67;;;7.87;;
17872;SDS011;36318;42.620;23.338;2022-10-23T03:25:26;15.30;;;8.20;;
17872;SDS011;36318;42.620;23.338;2022-10-23T03:27:53;16.33;;;7.87;;
17872;SDS011;36318;42.620;23.338;2022-10-23T03:30:21;10.37;;;7.37;;
17872;SDS011;36318;42.620;23.338;2022-10-23T03:32:47;11.93;;;7.17;;
17872;SDS011;36318;42.620;23.338;2022-10-23T03:35:14;17.00;;;7.77;;
17872;SDS011;36318;42.620;23.338;2022-10-23T03:37:40;13.03;;;8.27;;
17872;SDS011;36318;42.620;23.338;2022-10-23T03:40:07;16.93;;;8.17;;
17872;SDS011;36318;42.620;23.338;2022-10-23T03:42:34;12.00;;;8.27;;
17872;SDS011;36318;42.620;23.338;2022-10-23T03:45:00;11.33;;;6.80;;
17872;SDS011;36318;42.620;23.338;2022-10-23T03:47:28;12.03;;;6.23;;
17872;SDS011;36318;42.620;23.338;2022-10-23T03:49:56;9.60;;;6.60;;
17872;SDS011;36318;42.620;23.338;2022-10-23T03:52:23;13.37;;;6.90;;
17872;SDS011;36318;42.620;23.338;2022-10-23T03:54:49;8.40;;;5.77;;
17872;SDS011;36318;42.620;23.338;2022-10-23T03:57:16;16.63;;;7.07;;
17872;SDS011;36318;42.620;23.338;2022-10-23T03:59:42;12.43;;;6.97;;
17872;SDS011;36318;42.620;23.338;2022-10-23T04:02:09;9.93;;;6.77;;
17872;SDS011;36318;42.620;23.338;2022-10-23T04:04:37;11.30;;;6.67;;
17872;SDS011;36318;42.620;23.338;2022-10-23T04:07:04;14.70;;;7.00;;
17872;SDS011;36318;42.620;23.338;2022-10-23T04:09:30;14.23;;;6.77;;
17872;SDS011;36318;42.620;23.338;2022-10-23T04:11:57;12.03;;;6.83;;
17872;SDS011;36318;42.620;23.338;2022-10-23T04:14:24;16.17;;;7.03;;
17872;SDS011;36318;42.620;23.338;2022-10-23T04:16:51;16.17;;;5.90;;
17872;SDS011;36318;42.620;23.338;2022-10-23T04:19:17;11.80;;;5.63;;
17872;SDS011;36318;42.620;23.338;2022-10-23T04:21:45;12.17;;;6.00;;
17872;SDS011;36318;42.620;23.338;2022-10-23T04:24:11;9.07;;;4.90;;
17872;SDS011;36318;42.620;23.338;2022-10-23T04:26:38;15.40;;;5.20;;
17872;SDS011;36318;42.620;23.338;2022-10-23T04:29:05;12.73;;;5.67;;
17872;SDS011;36318;42.620;23.338;2022-10-23T04:31:31;8.17;;;5.60;;
17872;SDS011;36318;42.620;23.338;2022-10-23T04:33:58;11.27;;;5.57;;
17872;SDS011;36318;42.620;23.338;2022-10-23T04:36:24;10.00;;;5.53;;
17872;SDS011;36318;42.620;23.338;2022-10-23T04:38:52;10.23;;;4.53;;
17872;SDS011;36318;42.620;23.338;2022-10-23T04:41:19;12.33;;;5.47;;
17872;SDS011;36318;42.620;23.338;2022-10-23T04:43:45;9.70;;;4.87;;
17872;SDS011;36318;42.620;23.338;2022-10-23T04:46:12;13.73;;;5.07;;
17872;SDS011;36318;42.620;23.338;2022-10-23T04:48:38;8.87;;;5.23;;
17872;SDS011;36318;42.620;23.338;2022-10-23T04:51:05;10.30;;;5.40;;
17872;SDS011;36318;42.620;23.338;2022-10-23T04:53:32;13.80;;;6.00;;
17872;SDS011;36318;42.620;23.338;2022-10-23T04:56:00;10.93;;;6.53;;
17872;SDS011;36318;42.620;23.338;2022-10-23T04:58:27;11.53;;;6.73;;
17872;SDS011;36318;42.620;23.338;2022-10-23T05:00:53;9.83;;;6.37;;
17872;SDS011;36318;42.620;23.338;2022-10-23T05:03:21;7.93;;;6.23;;
17872;SDS011;36318;42.620;23.338;2022-10-23T05:05:47;8.30;;;6.00;;
17872;SDS011;36318;42.620;23.338;2022-10-23T05:08:14;10.97;;;5.60;;
17872;SDS011;36318;42.620;23.338;2022-10-23T05:10:41;8.17;;;5.10;;
17872;SDS011;36318;42.620;23.338;2022-10-23T05:13:08;10.17;;;5.80;;
17872;SDS011;36318;42.620;23.338;2022-10-23T05:15:35;9.10;;;5.83;;
17872;SDS011;36318;42.620;23.338;2022-10-23T05:18:03;10.17;;;5.17;;
17872;SDS011;36318;42.620;23.338;2022-10-23T05:20:34;7.10;;;5.23;;
17872;SDS011;36318;42.620;23.338;2022-10-23T05:23:02;11.60;;;6.03;;
17872;SDS011;36318;42.620;23.338;2022-10-23T05:25:31;11.97;;;6.40;;
17872;SDS011;36318;42.620;23.338;2022-10-23T05:27:58;10.63;;;5.13;;
17872;SDS011;36318;42.620;23.338;2022-10-23T05:30:26;9.20;;;5.80;;
17872;SDS011;36318;42.620;23.338;2022-10-23T05:32:52;15.70;;;5.80;;
17872;SDS011;36318;42.620;23.338;2022-10-23T05:35:21;14.93;;;5.53;;
17872;SDS011;36318;42.620;23.338;2022-10-23T05:37:48;11.23;;;5.97;;
17872;SDS011;36318;42.620;23.338;2022-10-23T05:40:16;11.50;;;5.43;;
17872;SDS011;36318;42.620;23.338;2022-10-23T05:42:43;8.50;;;5.33;;
17872;SDS011;36318;42.620;23.338;2022-10-23T05:45:09;8.17;;;6.10;;
17872;SDS011;36318;42.620;23.338;2022-10-23T05:47:37;12.00;;;5.50;;
17872;SDS011;36318;42.620;23.338;2022-10-23T05:50:04;12.17;;;5.47;;
17872;SDS011;36318;42.620;23.338;2022-10-23T05:52:31;10.10;;;5.33;;
17872;SDS011;36318;42.620;23.338;2022-10-23T05:54:57;12.03;;;5.53;;
17872;SDS011;36318;42.620;23.338;2022-10-23T05:57:24;9.80;;;6.10;;
17872;SDS011;36318;42.620;23.338;2022-10-23T05:59:50;11.93;;;5.30;;
17872;SDS011;36318;42.620;23.338;2022-10-23T06:02:17;9.80;;;5.70;;
17872;SDS011;36318;42.620;23.338;2022-10-23T06:04:45;12.80;;;5.87;;
17872;SDS011;36318;42.620;23.338;2022-10-23T06:07:11;6.23;;;4.60;;
17872;SDS011;36318;42.620;23.338;2022-10-23T06:09:38;6.90;;;4.53;;
17872;SDS011;36318;42.620;23.338;2022-10-23T06:12:04;11.10;;;4.90;;
17872;SDS011;36318;42.620;23.338;2022-10-23T06:14:31;9.33;;;4.40;;
17872;SDS011;36318;42.620;23.338;2022-10-23T06:16:57;8.93;;;4.47;;
17872;SDS011;36318;42.620;23.338;2022-10-23T06:19:24;9.57;;;4.43;;
17872;SDS011;36318;42.620;23.338;2022-10-23T06:21:52;6.60;;;4.53;;
17872;SDS011;36318;42.620;23.338;2022-10-23T06:24:18;6.27;;;4.77;;
17872;SDS011;36318;42.620;23.338;2022-10-23T06:26:45;10.60;;;4.70;;
17872;SDS011;36318;42.620;23.338;2022-10-23T06:29:11;8.97;;;4.70;;
17872;SDS011;36318;42.620;23.338;2022-10-23T06:31:38;7.77;;;4.80;;
17872;SDS011;36318;42.620;23.338;2022-10-23T06:34:04;6.80;;;4.57;;
17872;SDS011;36318;42.620;23.338;2022-10-23T06:36:31;9.43;;;4.67;;
17872;SDS011;36318;42.620;23.338;2022-10-23T06:38:59;8.03;;;4.73;;
17872;SDS011;36318;42.620;23.338;2022-10-23T06:41:25;5.50;;;4.43;;
17872;SDS011;36318;42.620;23.338;2022-10-23T06:43:52;9.10;;;4.70;;
17872;SDS011;36318;42.620;23.338;2022-10-23T06:46:19;9.87;;;5.00;;
17872;SDS011;36318;42.620;23.338;2022-10-23T06:48:45;11.03;;;5.03;;
17872;SDS011;36318;42.620;23.338;2022-10-23T06:51:13;8.23;;;4.53;;
17872;SDS011;36318;42.620;23.338;2022-10-23T06:53:40;11.33;;;5.00;;
17872;SDS011;36318;42.620;23.338;2022-10-23T06:56:09;6.27;;;4.20;;
17872;SDS011;36318;42.620;23.338;2022-10-23T06:58:36;8.90;;;4.73;;
17872;SDS011;36318;42.620;23.338;2022-10-23T07:01:04;6.13;;;4.27;;
17872;SDS011;36318;42.620;23.338;2022-10-23T07:03:31;10.43;;;4.83;;
17872;SDS011;36318;42.620;23.338;2022-10-23T07:05:59;7.37;;;4.70;;
17872;SDS011;36318;42.620;23.338;2022-10-23T07:08:25;10.67;;;4.80;;
17872;SDS011;36318;42.620;23.338;2022-10-23T07:10:52;7.97;;;4.13;;
17872;SDS011;36318;42.620;23.338;2022-10-23T07:13:20;12.93;;;4.70;;
17872;SDS011;36318;42.620;23.338;2022-10-23T07:15:46;9.00;;;4.50;;
17872;SDS011;36318;42.620;23.338;2022-10-23T07:18:13;5.40;;;3.80;;
17872;SDS011;36318;42.620;23.338;2022-10-23T07:20:41;3.87;;;3.00;;
17872;SDS011;36318;42.620;23.338;2022-10-23T07:23:07;7.17;;;3.90;;
17872;SDS011;36318;42.620;23.338;2022-10-23T07:25:34;7.50;;;4.70;;
17872;SDS011;36318;42.620;23.338;2022-10-23T07:28:01;7.97;;;4.00;;
17872;SDS011;36318;42.620;23.338;2022-10-23T07:30:30;7.30;;;3.73;;
17872;SDS011;36318;42.620;23.338;2022-10-23T07:32:56;9.43;;;3.43;;
17872;SDS011;36318;42.620;23.338;2022-10-23T07:35:23;5.87;;;3.20;;
17872;SDS011;36318;42.620;23.338;2022-10-23T07:37:49;6.93;;;2.97;;
17872;SDS011;36318;42.620;23.338;2022-10-23T07:40:16;6.43;;;2.90;;
17872;SDS011;36318;42.620;23.338;2022-10-23T07:42:43;5.73;;;3.40;;
17872;SDS011;36318;42.620;23.338;2022-10-23T07:45:10;8.50;;;3.20;;
17872;SDS011;36318;42.620;23.338;2022-10-23T07:47:38;7.50;;;2.92;;
17872;SDS011;36318;42.620;23.338;2022-10-23T07:50:05;4.30;;;2.78;;
17872;SDS011;36318;42.620;23.338;2022-10-23T07:52:33;3.78;;;2.85;;
17872;SDS011;36318;42.620;23.338;2022-10-23T07:54:59;6.22;;;2.95;;
17872;SDS011;36318;42.620;23.338;2022-10-23T07:57:26;5.65;;;2.53;;
17872;SDS011;36318;42.620;23.338;2022-10-23T07:59:52;6.50;;;2.70;;
17872;SDS011;36318;42.620;23.338;2022-10-23T08:02:19;3.35;;;2.17;;
17872;SDS011;36318;42.620;23.338;2022-10-23T08:04:48;11.32;;;2.95;;
17872;SDS011;36318;42.620;23.338;2022-10-23T08:07:15;4.45;;;2.80;;
17872;SDS011;36318;42.620;23.338;2022-10-23T08:09:41;5.45;;;2.78;;
17872;SDS011;36318;42.620;23.338;2022-10-23T08:12:08;5.57;;;2.75;;
17872;SDS011;36318;42.620;23.338;2022-10-23T08:14:34;3.40;;;2.42;;
17872;SDS011;36318;42.620;23.338;2022-10-23T08:17:01;4.97;;;3.10;;
17872;SDS011;36318;42.620;23.338;2022-10-23T08:19:29;2.80;;;2.53;;
17872;SDS011;36318;42.620;23.338;2022-10-23T08:21:56;8.05;;;2.90;;
17872;SDS011;36318;42.620;23.338;2022-10-23T08:24:23;5.07;;;2.50;;
17872;SDS011;36318;42.620;23.338;2022-10-23T08:26:50;3.55;;;2.90;;
17872;SDS011;36318;42.620;23.338;2022-10-23T08:29:16;7.47;;;3.22;;
17872;SDS011;36318;42.620;23.338;2022-10-23T08:31:43;5.13;;;3.00;;
17872;SDS011;36318;42.620;23.338;2022-10-23T08:34:09;5.60;;;3.60;;
17872;SDS011;36318;42.620;23.338;2022-10-23T08:36:36;4.38;;;3.97;;
17872;SDS011;36318;42.620;23.338;2022-10-23T08:39:05;3.17;;;2.55;;
17872;SDS011;36318;42.620;23.338;2022-10-23T08:41:32;3.05;;;2.72;;
17872;SDS011;36318;42.620;23.338;2022-10-23T08:44:01;5.90;;;2.72;;
17872;SDS011;36318;42.620;23.338;2022-10-23T08:46:33;4.43;;;2.92;;
17872;SDS011;36318;42.620;23.338;2022-10-23T08:49:08;6.15;;;3.15;;
17872;SDS011;36318;42.620;23.338;2022-10-23T08:51:42;3.55;;;2.67;;
17872;SDS011;36318;42.620;23.338;2022-10-23T08:54:13;5.28;;;2.47;;
17872;SDS011;36318;42.620;23.338;2022-10-23T08:56:40;4.18;;;3.53;;
17872;SDS011;36318;42.620;23.338;2022-10-23T08:59:10;8.23;;;4.50;;
17872;SDS011;36318;42.620;23.338;2022-10-23T09:01:39;3.72;;;3.00;;
17872;SDS011;36318;42.620;23.338;2022-10-23T09:04:07;4.50;;;3.20;;
17872;SDS011;36318;42.620;23.338;2022-10-23T09:06:37;4.95;;;2.72;;
17872;SDS011;36318;42.620;23.338;2022-10-23T09:09:08;5.43;;;2.80;;
17872;SDS011;36318;42.620;23.338;2022-10-23T09:11:45;5.97;;;3.25;;
17872;SDS011;36318;42.620;23.338;2022-10-23T09:17:01;5.25;;;3.45;;
17872;SDS011;36318;42.620;23.338;2022-10-23T09:19:30;5.60;;;4.10;;
17872;SDS011;36318;42.620;23.338;2022-10-23T09:21:56;6.03;;;4.13;;
17872;SDS011;36318;42.620;23.338;2022-10-23T09:24:24;6.60;;;2.42;;
17872;SDS011;36318;42.620;23.338;2022-10-23T09:26:57;5.90;;;2.40;;
17872;SDS011;36318;42.620;23.338;2022-10-23T09:29:26;7.82;;;2.92;;
17872;SDS011;36318;42.620;23.338;2022-10-23T09:31:54;2.85;;;2.47;;
17872;SDS011;36318;42.620;23.338;2022-10-23T09:34:21;4.32;;;2.30;;
17872;SDS011;36318;42.620;23.338;2022-10-23T09:36:49;6.18;;;2.70;;
17872;SDS011;36318;42.620;23.338;2022-10-23T09:39:24;13.40;;;3.13;;
17872;SDS011;36318;42.620;23.338;2022-10-23T09:41:51;2.75;;;2.35;;
17872;SDS011;36318;42.620;23.338;2022-10-23T09:44:20;5.07;;;2.55;;
17872;SDS011;36318;42.620;23.338;2022-10-23T09:46:47;2.70;;;2.50;;
17872;SDS011;36318;42.620;23.338;2022-10-23T09:49:16;4.68;;;2.75;;
17872;SDS011;36318;42.620;23.338;2022-10-23T09:51:51;4.60;;;2.58;;
17872;SDS011;36318;42.620;23.338;2022-10-23T09:54:19;3.65;;;2.50;;
17872;SDS011;36318;42.620;23.338;2022-10-23T09:56:48;5.35;;;3.03;;
17872;SDS011;36318;42.620;23.338;2022-10-23T09:59:20;5.07;;;2.65;;
17872;SDS011;36318;42.620;23.338;2022-10-23T10:01:48;3.95;;;2.50;;
17872;SDS011;36318;42.620;23.338;2022-10-23T10:04:15;4.90;;;2.58;;
17872;SDS011;36318;42.620;23.338;2022-10-23T10:06:42;3.05;;;2.13;;
17872;SDS011;36318;42.620;23.338;2022-10-23T10:09:11;2.65;;;2.05;;
17872;SDS011;36318;42.620;23.338;2022-10-23T10:11:38;4.63;;;2.55;;
17872;SDS011;36318;42.620;23.338;2022-10-23T10:14:17;5.40;;;2.88;;
17872;SDS011;36318;42.620;23.338;2022-10-23T10:16:48;6.00;;;2.92;;
17872;SDS011;36318;42.620;23.338;2022-10-23T10:19:22;2.72;;;1.92;;
17872;SDS011;36318;42.620;23.338;2022-10-23T10:21:52;2.92;;;2.08;;
17872;SDS011;36318;42.620;23.338;2022-10-23T10:24:20;7.15;;;1.92;;
17872;SDS011;36318;42.620;23.338;2022-10-23T10:26:50;2.13;;;1.80;;
17872;SDS011;36318;42.620;23.338;2022-10-23T10:29:21;6.57;;;2.28;;
17872;SDS011;36318;42.620;23.338;2022-10-23T10:31:57;3.92;;;2.10;;
17872;SDS011;36318;42.620;23.338;2022-10-23T10:34:28;2.70;;;2.00;;
17872;SDS011;36318;42.620;23.338;2022-10-23T10:36:55;6.28;;;2.20;;
17872;SDS011;36318;42.620;23.338;2022-10-23T10:39:34;1.90;;;1.67;;
17872;SDS011;36318;42.620;23.338;2022-10-23T10:42:07;4.10;;;1.80;;
17872;SDS011;36318;42.620;23.338;2022-10-23T10:44:49;3.63;;;1.70;;
17872;SDS011;36318;42.620;23.338;2022-10-23T10:47:20;1.63;;;1.42;;
17872;SDS011;36318;42.620;23.338;2022-10-23T10:49:51;2.85;;;1.60;;
17872;SDS011;36318;42.620;23.338;2022-10-23T10:52:22;5.18;;;1.58;;
17872;SDS011;36318;42.620;23.338;2022-10-23T10:54:53;4.93;;;1.67;;
17872;SDS011;36318;42.620;23.338;2022-10-23T10:57:24;5.15;;;3.35;;
17872;SDS011;36318;42.620;23.338;2022-10-23T10:59:52;4.47;;;3.30;;
17872;SDS011;36318;42.620;23.338;2022-10-23T11:02:24;9.30;;;4.00;;
17872;SDS011;36318;42.620;23.338;2022-10-23T11:04:53;2.47;;;2.10;;
17872;SDS011;36318;42.620;23.338;2022-10-23T11:07:23;10.15;;;4.65;;
17872;SDS011;36318;42.620;23.338;2022-10-23T11:09:50;3.78;;;3.28;;
17872;SDS011;36318;42.620;23.338;2022-10-23T11:12:23;5.85;;;2.33;;
17872;SDS011;36318;42.620;23.338;2022-10-23T11:14:51;2.22;;;2.00;;
17872;SDS011;36318;42.620;23.338;2022-10-23T11:17:19;25.38;;;3.50;;
17872;SDS011;36318;42.620;23.338;2022-10-23T11:19:51;10.10;;;2.67;;
17872;SDS011;36318;42.620;23.338;2022-10-23T11:22:20;5.93;;;2.35;;
17872;SDS011;36318;42.620;23.338;2022-10-23T11:27:39;7.15;;;2.28;;
17872;SDS011;36318;42.620;23.338;2022-10-23T11:30:16;3.00;;;2.37;;
17872;SDS011;36318;42.620;23.338;2022-10-23T11:35:30;4.28;;;2.35;;
17872;SDS011;36318;42.620;23.338;2022-10-23T11:37:59;2.38;;;1.95;;
17872;SDS011;36318;42.620;23.338;2022-10-23T11:40:26;2.85;;;2.20;;
17872;SDS011;36318;42.620;23.338;2022-10-23T11:42:53;2.37;;;2.00;;
17872;SDS011;36318;42.620;23.338;2022-10-23T11:45:32;2.05;;;1.80;;
17872;SDS011;36318;42.620;23.338;2022-10-23T11:47:59;3.57;;;2.10;;
17872;SDS011;36318;42.620;23.338;2022-10-23T11:50:29;2.60;;;1.80;;
17872;SDS011;36318;42.620;23.338;2022-10-23T11:52:58;8.70;;;2.03;;
17872;SDS011;36318;42.620;23.338;2022-10-23T11:55:25;4.65;;;1.95;;
17872;SDS011;36318;42.620;23.338;2022-10-23T11:58:09;2.13;;;1.80;;
17872;SDS011;36318;42.620;23.338;2022-10-23T12:00:37;2.87;;;1.97;;
17872;SDS011;36318;42.620;23.338;2022-10-23T12:03:05;2.20;;;2.00;;
17872;SDS011;36318;42.620;23.338;2022-10-23T12:05:41;3.25;;;2.00;;
17872;SDS011;36318;42.620;23.338;2022-10-23T12:08:17;1.77;;;1.67;;
17872;SDS011;36318;42.620;23.338;2022-10-23T12:10:45;5.10;;;1.83;;
17872;SDS011;36318;42.620;23.338;2022-10-23T12:13:25;3.60;;;2.08;;
17872;SDS011;36318;42.620;23.338;2022-10-23T12:15:53;2.17;;;1.98;;
17872;SDS011;36318;42.620;23.338;2022-10-23T12:18:20;2.17;;;1.88;;
17872;SDS011;36318;42.620;23.338;2022-10-23T12:20:49;4.77;;;2.20;;
17872;SDS011;36318;42.620;23.338;2022-10-23T12:23:24;4.32;;;2.20;;
17872;SDS011;36318;42.620;23.338;2022-10-23T12:26:00;4.60;;;2.10;;
17872;SDS011;36318;42.620;23.338;2022-10-23T12:28:31;7.63;;;2.78;;
17872;SDS011;36318;42.620;23.338;2022-10-23T12:31:02;2.47;;;1.90;;
17872;SDS011;36318;42.620;23.338;2022-10-23T12:33:32;5.37;;;2.33;;
17872;SDS011;36318;42.620;23.338;2022-10-23T12:36:05;5.63;;;2.00;;
17872;SDS011;36318;42.620;23.338;2022-10-23T12:38:38;4.23;;;2.13;;
17872;SDS011;36318;42.620;23.338;2022-10-23T12:41:09;3.37;;;2.23;;
17872;SDS011;36318;42.620;23.338;2022-10-23T12:43:36;3.60;;;2.13;;
17872;SDS011;36318;42.620;23.338;2022-10-23T12:46:06;2.17;;;1.80;;
17872;SDS011;36318;42.620;23.338;2022-10-23T12:48:46;4.40;;;2.28;;
17872;SDS011;36318;42.620;23.338;2022-10-23T12:51:15;1.92;;;1.75;;
17872;SDS011;36318;42.620;23.338;2022-10-23T12:53:47;3.15;;;2.15;;
17872;SDS011;36318;42.620;23.338;2022-10-23T12:56:13;2.42;;;1.70;;
17872;SDS011;36318;42.620;23.338;2022-10-23T12:58:44;2.33;;;2.00;;
17872;SDS011;36318;42.620;23.338;2022-10-23T13:01:20;2.57;;;2.00;;
17872;SDS011;36318;42.620;23.338;2022-10-23T13:03:47;3.03;;;1.60;;
17872;SDS011;36318;42.620;23.338;2022-10-23T13:06:15;3.87;;;2.00;;
17872;SDS011;36318;42.620;23.338;2022-10-23T13:08:43;2.33;;;2.10;;
17872;SDS011;36318;42.620;23.338;2022-10-23T13:11:11;4.70;;;2.40;;
17872;SDS011;36318;42.620;23.338;2022-10-23T13:13:39;4.80;;;2.37;;
17872;SDS011;36318;42.620;23.338;2022-10-23T13:16:12;3.07;;;2.03;;
17872;SDS011;36318;42.620;23.338;2022-10-23T13:18:39;3.67;;;2.05;;
17872;SDS011;36318;42.620;23.338;2022-10-23T13:21:09;2.30;;;2.10;;
17872;SDS011;36318;42.620;23.338;2022-10-23T13:23:38;5.43;;;2.17;;
17872;SDS011;36318;42.620;23.338;2022-10-23T13:26:19;5.10;;;2.30;;
17872;SDS011;36318;42.620;23.338;2022-10-23T13:28:47;2.55;;;1.63;;
17872;SDS011;36318;42.620;23.338;2022-10-23T13:31:29;6.68;;;1.80;;
17872;SDS011;36318;42.620;23.338;2022-10-23T13:34:04;3.90;;;1.63;;
17872;SDS011;36318;42.620;23.338;2022-10-23T13:36:33;2.25;;;1.80;;
17872;SDS011;36318;42.620;23.338;2022-10-23T13:39:03;2.15;;;1.70;;
17872;SDS011;36318;42.620;23.338;2022-10-23T13:41:38;3.90;;;2.00;;
17872;SDS011;36318;42.620;23.338;2022-10-23T13:44:05;3.65;;;1.60;;
17872;SDS011;36318;42.620;23.338;2022-10-23T13:46:32;2.33;;;1.80;;
17872;SDS011;36318;42.620;23.338;2022-10-23T13:48:58;3.10;;;1.60;;
17872;SDS011;36318;42.620;23.338;2022-10-23T13:51:26;2.28;;;1.90;;
17872;SDS011;36318;42.620;23.338;2022-10-23T13:53:53;5.97;;;1.75;;
17872;SDS011;36318;42.620;23.338;2022-10-23T13:56:21;3.35;;;1.92;;
17872;SDS011;36318;42.620;23.338;2022-10-23T13:58:48;5.40;;;1.60;;
17872;SDS011;36318;42.620;23.338;2022-10-23T14:01:17;2.47;;;1.55;;
17872;SDS011;36318;42.620;23.338;2022-10-23T14:03:46;3.25;;;1.77;;
17872;SDS011;36318;42.620;23.338;2022-10-23T14:06:12;2.08;;;1.88;;
17872;SDS011;36318;42.620;23.338;2022-10-23T14:08:39;3.65;;;1.77;;
17872;SDS011;36318;42.620;23.338;2022-10-23T14:11:06;4.65;;;2.10;;
17872;SDS011;36318;42.620;23.338;2022-10-23T14:13:34;2.90;;;2.03;;
17872;SDS011;36318;42.620;23.338;2022-10-23T14:16:00;3.70;;;1.85;;
17872;SDS011;36318;42.620;23.338;2022-10-23T14:18:27;3.67;;;2.15;;
17872;SDS011;36318;42.620;23.338;2022-10-23T14:20:53;3.58;;;1.58;;
17872;SDS011;36318;42.620;23.338;2022-10-23T14:23:20;5.83;;;2.07;;
17872;SDS011;36318;42.620;23.338;2022-10-23T14:25:46;3.83;;;2.00;;
17872;SDS011;36318;42.620;23.338;2022-10-23T14:28:13;6.57;;;2.20;;
17872;SDS011;36318;42.620;23.338;2022-10-23T14:30:40;2.90;;;2.10;;
17872;SDS011;36318;42.620;23.338;2022-10-23T14:33:08;4.53;;;2.70;;
17872;SDS011;36318;42.620;23.338;2022-10-23T14:35:37;5.23;;;2.80;;
17872;SDS011;36318;42.620;23.338;2022-10-23T14:38:04;6.33;;;4.70;;
17872;SDS011;36318;42.620;23.338;2022-10-23T14:40:30;7.67;;;5.50;;
17872;SDS011;36318;42.620;23.338;2022-10-23T14:42:57;9.97;;;5.80;;